Maran Pythia — SVAQ5 — position and weather

sailwx.info

Track history (hours):
 
Tides and Currents Weather Stations Pressure Air Temp Water Temp Dewpoint Dewpoint Depression Visibility Wind Speed Wind Dir Waves Ship Positions

Maran Pythia

Last reported at 2017-Oct-17 23:50 UTC. Time now 2017-Oct-18 00:24 UTC.
Position N 47°03' W 007°02'.

Length 275 m; draft 16.5 m.

Type: Ship (hazmat cat A). MMSI: 240893000.

Date/timePositionNaut miles runAvg speedWind from/ knotsBaromVisibWave heightAir tempDewpointWater temp
2017-Oct-17 23:50N 47°03' W 007°02'1912.1
2017-Oct-17 22:18N 46°47' W 007°14'45711.4
2017-Oct-16 06:07N 39°25' W 009°57'112.1
2017-Oct-16 06:00N 39°24' W 009°57'711.9
2017-Oct-16 05:23N 39°17' W 009°57'512.3
2017-Oct-16 05:00N 39°12' W 009°57'612.4
2017-Oct-16 04:30N 39°06' W 009°57'612.5
2017-Oct-16 04:00N 38°60' W 009°57'612.6
2017-Oct-16 03:30N 38°53' W 009°57'612.5
2017-Oct-16 03:00N 38°47' W 009°57'612.9
2017-Oct-16 02:30N 38°41' W 009°56'713.2
2017-Oct-16 02:00N 38°34' W 009°54'713.4
2017-Oct-16 01:30N 38°28' W 009°52'713.6
2017-Oct-16 01:00N 38°21' W 009°50'713.3
2017-Oct-16 00:30N 38°15' W 009°48'713.3
2017-Oct-16 00:00N 38°08' W 009°45'713.1
2017-Oct-15 23:31N 38°02' W 009°43'713.4
2017-Oct-15 23:00N 37°56' W 009°41'713.5
2017-Oct-15 22:31N 37°49' W 009°39'713.7
2017-Oct-15 22:00N 37°42' W 009°38'713.5
2017-Oct-15 21:30N 37°36' W 009°36'612.9
2017-Oct-15 21:00N 37°29' W 009°34'612.8
2017-Oct-15 20:31N 37°23' W 009°32'612.8
2017-Oct-15 20:00N 37°17' W 009°31'612.7
2017-Oct-15 19:31N 37°11' W 009°29'612.9
2017-Oct-15 19:01N 37°04' W 009°28'612.8
2017-Oct-15 18:31N 36°58' W 009°26'612.8
2017-Oct-15 18:00N 36°52' W 009°25'611.9
2017-Oct-15 17:30N 36°47' W 009°20'611.9
2017-Oct-15 17:00N 36°43' W 009°15'611.5
2017-Oct-15 16:29N 36°40' W 009°09'611.9
2017-Oct-15 16:00N 36°38' W 009°02'612.2
2017-Oct-15 15:31N 36°36' W 008°55'612.2
2017-Oct-15 15:00N 36°33' W 008°48'1212.1
2017-Oct-15 14:00N 36°28' W 008°34'612.8
2017-Oct-15 13:30N 36°26' W 008°27'612.7
2017-Oct-15 13:00N 36°23' W 008°20'612.6
2017-Oct-15 12:30N 36°21' W 008°12'612.7
2017-Oct-15 12:00N 36°19' W 008°05'712.9
2017-Oct-15 11:30N 36°18' W 007°57'713.4
2017-Oct-15 11:01N 36°16' W 007°49'713.0
2017-Oct-15 10:30N 36°15' W 007°41'612.9
2017-Oct-15 10:00N 36°13' W 007°34'612.6
2017-Oct-15 09:30N 36°11' W 007°26'612.8
2017-Oct-15 09:00N 36°09' W 007°19'712.6
2017-Oct-15 08:28N 36°08' W 007°10'612.5
2017-Oct-15 08:00N 36°07' W 007°03'812.5
2017-Oct-15 07:20N 36°05' W 006°53'612.8
2017-Oct-15 06:51N 36°03' W 006°46'412.8
2017-Oct-15 06:31N 36°02' W 006°40'612.7
2017-Oct-15 06:00N 36°01' W 006°33'612.8
2017-Oct-15 05:31N 35°59' W 006°25'612.8
2017-Oct-15 05:01N 35°58' W 006°17'2312.6
2017-Oct-15 03:13N 35°58' W 005°50'312.4
2017-Oct-15 02:57N 35°58' W 005°45'811.4
2017-Oct-15 02:17N 35°58' W 005°36'411.9
2017-Oct-15 01:57N 35°59' W 005°31'512.3
2017-Oct-15 01:31N 36°00' W 005°25'612.1
2017-Oct-15 01:01N 36°02' W 005°18'612.5
2017-Oct-15 00:31N 36°03' W 005°10'19012.1
2017-Oct-14 08:49N 36°47' W 001°21'613.2
2017-Oct-14 08:23N 36°49' W 001°14'513.4
2017-Oct-14 08:01N 36°51' W 001°09'1213.5
2017-Oct-14 07:05N 36°57' W 000°55'113.5
2017-Oct-14 07:01N 36°57' W 000°54'713.3
2017-Oct-14 06:30N 37°00' W 000°46'713.1
2017-Oct-14 05:57N 37°03' W 000°38'1713.0
2017-Oct-14 04:39N 37°11' W 000°19'212.9
2017-Oct-14 04:30N 37°12' W 000°17'612.7
2017-Oct-14 04:00N 37°15' W 000°10'612.6
2017-Oct-14 03:30N 37°17' W 000°03'612.5
2017-Oct-14 03:01N 37°20' E 000°04'612.3
2017-Oct-14 02:31N 37°23' E 000°11'612.4
2017-Oct-14 02:00N 37°26' E 000°18'612.2
2017-Oct-14 01:30N 37°29' E 000°25'612.4
2017-Oct-14 01:01N 37°31' E 000°32'612.5
2017-Oct-14 00:31N 37°34' E 000°39'612.8
2017-Oct-14 00:01N 37°37' E 000°47'612.7
2017-Oct-13 23:31N 37°38' E 000°54'713.1
2017-Oct-13 23:01N 37°39' E 001°03'713.2
2017-Oct-13 22:30N 37°39' E 001°11'1313.3
2017-Oct-13 21:32N 37°40' E 001°27'013.4
2017-Oct-13 21:31N 37°40' E 001°28'713.4
2017-Oct-13 20:59N 37°40' E 001°36'713.1
2017-Oct-13 20:28N 37°41' E 001°45'612.9
2017-Oct-13 20:00N 37°41' E 001°53'612.7
2017-Oct-13 19:30N 37°41' E 002°01'612.4
2017-Oct-13 19:00N 37°42' E 002°08'812.7
2017-Oct-13 18:23N 37°42' E 002°18'512.8
2017-Oct-13 18:01N 37°42' E 002°24'713.0
2017-Oct-13 17:30N 37°43' E 002°33'713.3
2017-Oct-13 17:00N 37°43' E 002°41'713.5
2017-Oct-13 16:30N 37°44' E 002°50'713.5
2017-Oct-13 16:01N 37°44' E 002°58'713.5
2017-Oct-13 15:30N 37°44' E 003°07'713.8
2017-Oct-13 15:00N 37°45' E 003°15'713.5
2017-Oct-13 14:30N 37°45' E 003°24'713.3
2017-Oct-13 14:00N 37°45' E 003°32'20113.3
2017-Oct-12 22:51N 37°57' E 007°46'512.8
2017-Oct-12 22:29N 37°57' E 007°52'612.7
2017-Oct-12 21:59N 37°57' E 008°00'612.8
2017-Oct-12 21:29N 37°58' E 008°09'  
Track history (hours):
 
Tides and Currents Weather Stations Pressure Air Temp Water Temp Dewpoint Dewpoint Depression Visibility Wind Speed Wind Dir Waves Ship Positions

Maran Pythia

Last reported at 2017-Oct-17 23:50 UTC. Time now 2017-Oct-18 00:24 UTC.
Position N 47°03' W 007°02'.

Length 275 m; draft 16.5 m.

Type: Ship (hazmat cat A). MMSI: 240893000.

Date/timePositionNaut miles runAvg speedWind from/ knotsBaromVisibWave heightAir tempDewpointWater temp
2017-Oct-17 23:50N 47°03' W 007°02'1912.1
2017-Oct-17 22:18N 46°47' W 007°14'45711.4
2017-Oct-16 06:07N 39°25' W 009°57'112.1
2017-Oct-16 06:00N 39°24' W 009°57'711.9
2017-Oct-16 05:23N 39°17' W 009°57'512.3
2017-Oct-16 05:00N 39°12' W 009°57'612.4
2017-Oct-16 04:30N 39°06' W 009°57'612.5
2017-Oct-16 04:00N 38°60' W 009°57'612.6
2017-Oct-16 03:30N 38°53' W 009°57'612.5
2017-Oct-16 03:00N 38°47' W 009°57'612.9
2017-Oct-16 02:30N 38°41' W 009°56'713.2
2017-Oct-16 02:00N 38°34' W 009°54'713.4
2017-Oct-16 01:30N 38°28' W 009°52'713.6
2017-Oct-16 01:00N 38°21' W 009°50'713.3
2017-Oct-16 00:30N 38°15' W 009°48'713.3
2017-Oct-16 00:00N 38°08' W 009°45'713.1
2017-Oct-15 23:31N 38°02' W 009°43'713.4
2017-Oct-15 23:00N 37°56' W 009°41'713.5
2017-Oct-15 22:31N 37°49' W 009°39'713.7
2017-Oct-15 22:00N 37°42' W 009°38'713.5
2017-Oct-15 21:30N 37°36' W 009°36'612.9
2017-Oct-15 21:00N 37°29' W 009°34'612.8
2017-Oct-15 20:31N 37°23' W 009°32'612.8
2017-Oct-15 20:00N 37°17' W 009°31'612.7
2017-Oct-15 19:31N 37°11' W 009°29'612.9
2017-Oct-15 19:01N 37°04' W 009°28'612.8
2017-Oct-15 18:31N 36°58' W 009°26'612.8
2017-Oct-15 18:00N 36°52' W 009°25'611.9
2017-Oct-15 17:30N 36°47' W 009°20'611.9
2017-Oct-15 17:00N 36°43' W 009°15'611.5
2017-Oct-15 16:29N 36°40' W 009°09'611.9
2017-Oct-15 16:00N 36°38' W 009°02'612.2
2017-Oct-15 15:31N 36°36' W 008°55'612.2
2017-Oct-15 15:00N 36°33' W 008°48'1212.1
2017-Oct-15 14:00N 36°28' W 008°34'612.8
2017-Oct-15 13:30N 36°26' W 008°27'612.7
2017-Oct-15 13:00N 36°23' W 008°20'612.6
2017-Oct-15 12:30N 36°21' W 008°12'612.7
2017-Oct-15 12:00N 36°19' W 008°05'712.9
2017-Oct-15 11:30N 36°18' W 007°57'713.4
2017-Oct-15 11:01N 36°16' W 007°49'713.0
2017-Oct-15 10:30N 36°15' W 007°41'612.9
2017-Oct-15 10:00N 36°13' W 007°34'612.6
2017-Oct-15 09:30N 36°11' W 007°26'612.8
2017-Oct-15 09:00N 36°09' W 007°19'712.6
2017-Oct-15 08:28N 36°08' W 007°10'612.5
2017-Oct-15 08:00N 36°07' W 007°03'812.5
2017-Oct-15 07:20N 36°05' W 006°53'612.8
2017-Oct-15 06:51N 36°03' W 006°46'412.8
2017-Oct-15 06:31N 36°02' W 006°40'612.7
2017-Oct-15 06:00N 36°01' W 006°33'612.8
2017-Oct-15 05:31N 35°59' W 006°25'612.8
2017-Oct-15 05:01N 35°58' W 006°17'2312.6
2017-Oct-15 03:13N 35°58' W 005°50'312.4
2017-Oct-15 02:57N 35°58' W 005°45'811.4
2017-Oct-15 02:17N 35°58' W 005°36'411.9
2017-Oct-15 01:57N 35°59' W 005°31'512.3
2017-Oct-15 01:31N 36°00' W 005°25'612.1
2017-Oct-15 01:01N 36°02' W 005°18'612.5
2017-Oct-15 00:31N 36°03' W 005°10'19012.1
2017-Oct-14 08:49N 36°47' W 001°21'613.2
2017-Oct-14 08:23N 36°49' W 001°14'513.4
2017-Oct-14 08:01N 36°51' W 001°09'1213.5
2017-Oct-14 07:05N 36°57' W 000°55'113.5
2017-Oct-14 07:01N 36°57' W 000°54'713.3
2017-Oct-14 06:30N 37°00' W 000°46'713.1
2017-Oct-14 05:57N 37°03' W 000°38'1713.0
2017-Oct-14 04:39N 37°11' W 000°19'212.9
2017-Oct-14 04:30N 37°12' W 000°17'612.7
2017-Oct-14 04:00N 37°15' W 000°10'612.6
2017-Oct-14 03:30N 37°17' W 000°03'612.5
2017-Oct-14 03:01N 37°20' E 000°04'612.3
2017-Oct-14 02:31N 37°23' E 000°11'612.4
2017-Oct-14 02:00N 37°26' E 000°18'612.2
2017-Oct-14 01:30N 37°29' E 000°25'612.4
2017-Oct-14 01:01N 37°31' E 000°32'612.5
2017-Oct-14 00:31N 37°34' E 000°39'612.8
2017-Oct-14 00:01N 37°37' E 000°47'612.7
2017-Oct-13 23:31N 37°38' E 000°54'713.1
2017-Oct-13 23:01N 37°39' E 001°03'713.2
2017-Oct-13 22:30N 37°39' E 001°11'1313.3
2017-Oct-13 21:32N 37°40' E 001°27'013.4
2017-Oct-13 21:31N 37°40' E 001°28'713.4
2017-Oct-13 20:59N 37°40' E 001°36'713.1
2017-Oct-13 20:28N 37°41' E 001°45'612.9
2017-Oct-13 20:00N 37°41' E 001°53'612.7
2017-Oct-13 19:30N 37°41' E 002°01'612.4
2017-Oct-13 19:00N 37°42' E 002°08'812.7
2017-Oct-13 18:23N 37°42' E 002°18'512.8
2017-Oct-13 18:01N 37°42' E 002°24'713.0
2017-Oct-13 17:30N 37°43' E 002°33'713.3
2017-Oct-13 17:00N 37°43' E 002°41'713.5
2017-Oct-13 16:30N 37°44' E 002°50'713.5
2017-Oct-13 16:01N 37°44' E 002°58'713.5
2017-Oct-13 15:30N 37°44' E 003°07'713.8
2017-Oct-13 15:00N 37°45' E 003°15'713.5
2017-Oct-13 14:30N 37°45' E 003°24'713.3
2017-Oct-13 14:00N 37°45' E 003°32'20113.3
2017-Oct-12 22:51N 37°57' E 007°46'512.8
2017-Oct-12 22:29N 37°57' E 007°52'612.7
2017-Oct-12 21:59N 37°57' E 008°00'612.8
2017-Oct-12 21:29N 37°58' E 008°09'  

Dump ship's entire track history